Terminal Aerodrome Forecast
Issued by NWS

Home | Current Version | Previous Version | Text Only | Print | Product List | Glossary On
Versions: 1 2 3 4 5 6 7 8 9 10 11 12 13 14 15 16 17 18 19 20 21 22 23 24
000
FTUS41 KRNK 272328
TAFBCB
TAF
KBCB 272328Z 2800/2824 05004KT P6SM BKN050
     FM280300 00000KT P6SM SCT050
     FM280800 00000KT P6SM BKN025
      TEMPO 2808/2812 5SM BR
     FM281400 14004KT P6SM BKN040=

USA.gov is the U.S. government's official web portal to all federal, state and local government web resources and services.